sensor_id;sensor_type;location;lat;lon;timestamp;temperature;humidity
16040;DHT22;8124;48.634;8.120;2022-09-09T00:01:01;21.90;99.90
16040;DHT22;8124;48.634;8.120;2022-09-09T00:06:10;21.90;99.90
16040;DHT22;8124;48.634;8.120;2022-09-09T00:11:21;21.80;99.90
16040;DHT22;8124;48.634;8.120;2022-09-09T00:16:36;21.80;99.90
16040;DHT22;8124;48.634;8.120;2022-09-09T00:21:48;21.90;99.90
16040;DHT22;8124;48.634;8.120;2022-09-09T00:27:01;21.80;99.90
16040;DHT22;8124;48.634;8.120;2022-09-09T00:32:12;21.80;99.90
16040;DHT22;8124;48.634;8.120;2022-09-09T00:37:16;21.60;99.90
16040;DHT22;8124;48.634;8.120;2022-09-09T00:42:24;21.50;99.90
16040;DHT22;8124;48.634;8.120;2022-09-09T00:47:39;21.40;99.90
16040;DHT22;8124;48.634;8.120;2022-09-09T00:52:51;21.10;99.90
16040;DHT22;8124;48.634;8.120;2022-09-09T00:57:59;20.70;99.90
16040;DHT22;8124;48.634;8.120;2022-09-09T01:03:21;20.60;99.90
16040;DHT22;8124;48.634;8.120;2022-09-09T01:08:46;20.50;99.90
16040;DHT22;8124;48.634;8.120;2022-09-09T01:14:00;20.70;99.90
16040;DHT22;8124;48.634;8.120;2022-09-09T01:19:10;20.70;99.90
16040;DHT22;8124;48.634;8.120;2022-09-09T01:24:25;20.50;99.90
16040;DHT22;8124;48.634;8.120;2022-09-09T01:29:49;20.30;99.90
16040;DHT22;8124;48.634;8.120;2022-09-09T01:34:54;20.40;99.90
16040;DHT22;8124;48.634;8.120;2022-09-09T01:39:57;20.40;99.90
16040;DHT22;8124;48.634;8.120;2022-09-09T01:45:02;20.40;99.90
16040;DHT22;8124;48.634;8.120;2022-09-09T01:50:07;20.40;99.90
16040;DHT22;8124;48.634;8.120;2022-09-09T01:55:14;20.50;99.90
16040;DHT22;8124;48.634;8.120;2022-09-09T02:00:19;20.30;99.90
16040;DHT22;8124;48.634;8.120;2022-09-09T02:05:35;20.20;99.90
16040;DHT22;8124;48.634;8.120;2022-09-09T02:10:48;20.20;99.90
16040;DHT22;8124;48.634;8.120;2022-09-09T02:16:10;20.00;99.90
16040;DHT22;8124;48.634;8.120;2022-09-09T02:21:17;20.00;99.90
16040;DHT22;8124;48.634;8.120;2022-09-09T02:26:21;19.90;99.90
16040;DHT22;8124;48.634;8.120;2022-09-09T02:31:34;19.80;99.90
16040;DHT22;8124;48.634;8.120;2022-09-09T02:36:43;19.80;99.90
16040;DHT22;8124;48.634;8.120;2022-09-09T02:41:50;19.70;99.90
16040;DHT22;8124;48.634;8.120;2022-09-09T02:47:22;19.60;99.90
16040;DHT22;8124;48.634;8.120;2022-09-09T02:52:36;19.60;99.90
16040;DHT22;8124;48.634;8.120;2022-09-09T02:57:43;19.60;99.90
16040;DHT22;8124;48.634;8.120;2022-09-09T03:02:52;19.60;99.90
16040;DHT22;8124;48.634;8.120;2022-09-09T03:07:56;19.60;99.90
16040;DHT22;8124;48.634;8.120;2022-09-09T03:12:59;19.70;99.90
16040;DHT22;8124;48.634;8.120;2022-09-09T03:18:08;19.60;99.90
16040;DHT22;8124;48.634;8.120;2022-09-09T03:23:12;19.60;99.90
16040;DHT22;8124;48.634;8.120;2022-09-09T03:28:17;19.50;99.90
16040;DHT22;8124;48.634;8.120;2022-09-09T03:33:22;19.70;99.90
16040;DHT22;8124;48.634;8.120;2022-09-09T03:38:25;19.70;99.90
16040;DHT22;8124;48.634;8.120;2022-09-09T03:43:28;19.80;99.90
16040;DHT22;8124;48.634;8.120;2022-09-09T03:48:33;19.90;99.90
16040;DHT22;8124;48.634;8.120;2022-09-09T03:53:37;19.70;99.90
16040;DHT22;8124;48.634;8.120;2022-09-09T03:58:41;19.70;99.90
16040;DHT22;8124;48.634;8.120;2022-09-09T04:03:47;19.60;99.90
16040;DHT22;8124;48.634;8.120;2022-09-09T04:08:49;19.40;99.90
16040;DHT22;8124;48.634;8.120;2022-09-09T04:13:54;19.40;99.90
16040;DHT22;8124;48.634;8.120;2022-09-09T04:18:58;19.20;99.90
16040;DHT22;8124;48.634;8.120;2022-09-09T04:24:03;19.30;99.90
16040;DHT22;8124;48.634;8.120;2022-09-09T04:29:06;19.30;99.90
16040;DHT22;8124;48.634;8.120;2022-09-09T04:34:10;19.20;99.90
16040;DHT22;8124;48.634;8.120;2022-09-09T04:39:14;19.20;99.90
16040;DHT22;8124;48.634;8.120;2022-09-09T04:44:17;19.20;99.90
16040;DHT22;8124;48.634;8.120;2022-09-09T04:49:22;19.20;99.90
16040;DHT22;8124;48.634;8.120;2022-09-09T04:54:32;19.30;99.90
16040;DHT22;8124;48.634;8.120;2022-09-09T04:59:36;19.40;99.90
16040;DHT22;8124;48.634;8.120;2022-09-09T05:04:40;19.40;99.90
16040;DHT22;8124;48.634;8.120;2022-09-09T05:09:43;19.50;99.90
16040;DHT22;8124;48.634;8.120;2022-09-09T05:14:46;19.50;99.90
16040;DHT22;8124;48.634;8.120;2022-09-09T05:19:51;19.40;99.90
16040;DHT22;8124;48.634;8.120;2022-09-09T05:24:54;19.50;99.90
16040;DHT22;8124;48.634;8.120;2022-09-09T05:29:57;19.50;99.90
16040;DHT22;8124;48.634;8.120;2022-09-09T05:35:02;19.60;99.90
16040;DHT22;8124;48.634;8.120;2022-09-09T05:40:06;19.50;99.90
16040;DHT22;8124;48.634;8.120;2022-09-09T05:45:10;19.70;99.90
16040;DHT22;8124;48.634;8.120;2022-09-09T05:50:15;19.70;99.90
16040;DHT22;8124;48.634;8.120;2022-09-09T05:55:18;19.80;99.90
16040;DHT22;8124;48.634;8.120;2022-09-09T06:00:23;19.70;99.90
16040;DHT22;8124;48.634;8.120;2022-09-09T06:05:28;19.80;99.90
16040;DHT22;8124;48.634;8.120;2022-09-09T06:10:33;20.00;99.90
16040;DHT22;8124;48.634;8.120;2022-09-09T06:15:37;20.00;99.90
16040;DHT22;8124;48.634;8.120;2022-09-09T06:20:42;20.00;99.90
16040;DHT22;8124;48.634;8.120;2022-09-09T06:26:15;20.00;99.90
16040;DHT22;8124;48.634;8.120;2022-09-09T06:31:25;19.80;99.90
16040;DHT22;8124;48.634;8.120;2022-09-09T06:36:47;19.80;99.90
16040;DHT22;8124;48.634;8.120;2022-09-09T06:41:51;19.90;99.90
16040;DHT22;8124;48.634;8.120;2022-09-09T06:47:13;19.90;99.90
16040;DHT22;8124;48.634;8.120;2022-09-09T06:52:18;20.00;99.90
16040;DHT22;8124;48.634;8.120;2022-09-09T06:57:26;20.00;99.90
16040;DHT22;8124;48.634;8.120;2022-09-09T07:03:10;20.00;99.90
16040;DHT22;8124;48.634;8.120;2022-09-09T07:08:37;20.10;99.90
16040;DHT22;8124;48.634;8.120;2022-09-09T07:13:49;20.30;99.90
16040;DHT22;8124;48.634;8.120;2022-09-09T07:18:55;20.20;99.90
16040;DHT22;8124;48.634;8.120;2022-09-09T07:24:06;20.30;99.90
16040;DHT22;8124;48.634;8.120;2022-09-09T07:29:14;20.20;99.90
16040;DHT22;8124;48.634;8.120;2022-09-09T07:34:24;20.20;99.90
16040;DHT22;8124;48.634;8.120;2022-09-09T07:39:28;20.40;99.90
16040;DHT22;8124;48.634;8.120;2022-09-09T07:44:43;20.40;99.90
16040;DHT22;8124;48.634;8.120;2022-09-09T07:49:49;20.80;99.90
16040;DHT22;8124;48.634;8.120;2022-09-09T07:55:02;21.10;99.90
16040;DHT22;8124;48.634;8.120;2022-09-09T08:00:08;21.10;99.90
16040;DHT22;8124;48.634;8.120;2022-09-09T08:05:24;21.30;99.90
16040;DHT22;8124;48.634;8.120;2022-09-09T08:10:29;21.40;99.90
16040;DHT22;8124;48.634;8.120;2022-09-09T08:15:35;21.40;99.90
16040;DHT22;8124;48.634;8.120;2022-09-09T08:20:43;21.30;99.90
16040;DHT22;8124;48.634;8.120;2022-09-09T08:26:13;21.40;99.90
16040;DHT22;8124;48.634;8.120;2022-09-09T08:31:19;21.40;99.90
16040;DHT22;8124;48.634;8.120;2022-09-09T08:36:31;21.30;99.90
16040;DHT22;8124;48.634;8.120;2022-09-09T08:42:10;21.30;99.90
16040;DHT22;8124;48.634;8.120;2022-09-09T08:47:32;21.50;99.90
16040;DHT22;8124;48.634;8.120;2022-09-09T08:52:54;21.80;99.90
16040;DHT22;8124;48.634;8.120;2022-09-09T08:58:14;21.90;99.90
16040;DHT22;8124;48.634;8.120;2022-09-09T09:03:26;22.10;99.90
16040;DHT22;8124;48.634;8.120;2022-09-09T09:08:38;22.10;99.90
16040;DHT22;8124;48.634;8.120;2022-09-09T09:13:50;22.20;99.90
16040;DHT22;8124;48.634;8.120;2022-09-09T09:19:10;22.10;99.90
16040;DHT22;8124;48.634;8.120;2022-09-09T09:24:19;22.00;99.90
16040;DHT22;8124;48.634;8.120;2022-09-09T09:29:29;22.10;99.90
16040;DHT22;8124;48.634;8.120;2022-09-09T09:34:33;22.00;99.90
16040;DHT22;8124;48.634;8.120;2022-09-09T09:39:40;21.70;99.90
16040;DHT22;8124;48.634;8.120;2022-09-09T09:45:16;22.00;99.90
16040;DHT22;8124;48.634;8.120;2022-09-09T09:50:23;21.80;99.90
16040;DHT22;8124;48.634;8.120;2022-09-09T09:55:28;21.50;99.90
16040;DHT22;8124;48.634;8.120;2022-09-09T10:00:35;21.10;99.90
16040;DHT22;8124;48.634;8.120;2022-09-09T10:05:46;21.20;99.90
16040;DHT22;8124;48.634;8.120;2022-09-09T10:11:06;21.50;99.90
16040;DHT22;8124;48.634;8.120;2022-09-09T10:16:28;21.60;99.90
16040;DHT22;8124;48.634;8.120;2022-09-09T10:21:52;21.40;99.90
16040;DHT22;8124;48.634;8.120;2022-09-09T10:27:05;21.40;99.90
16040;DHT22;8124;48.634;8.120;2022-09-09T10:32:31;21.00;99.90
16040;DHT22;8124;48.634;8.120;2022-09-09T10:37:49;21.00;99.90
16040;DHT22;8124;48.634;8.120;2022-09-09T10:42:58;21.10;99.90
16040;DHT22;8124;48.634;8.120;2022-09-09T10:48:16;21.10;99.90
16040;DHT22;8124;48.634;8.120;2022-09-09T10:53:34;21.40;99.90
16040;DHT22;8124;48.634;8.120;2022-09-09T10:58:44;21.40;99.90
16040;DHT22;8124;48.634;8.120;2022-09-09T11:03:54;21.40;99.90
16040;DHT22;8124;48.634;8.120;2022-09-09T11:08:59;21.50;99.90
16040;DHT22;8124;48.634;8.120;2022-09-09T11:14:11;21.50;99.90
16040;DHT22;8124;48.634;8.120;2022-09-09T11:19:22;21.70;99.90
16040;DHT22;8124;48.634;8.120;2022-09-09T11:24:31;21.80;99.90
16040;DHT22;8124;48.634;8.120;2022-09-09T11:35:29;21.90;99.90
16040;DHT22;8124;48.634;8.120;2022-09-09T11:40:36;21.90;99.90
16040;DHT22;8124;48.634;8.120;2022-09-09T11:45:42;22.10;99.90
16040;DHT22;8124;48.634;8.120;2022-09-09T11:51:03;22.30;99.90
16040;DHT22;8124;48.634;8.120;2022-09-09T11:56:12;22.40;99.90
16040;DHT22;8124;48.634;8.120;2022-09-09T12:01:57;22.50;99.90
16040;DHT22;8124;48.634;8.120;2022-09-09T12:07:33;22.40;99.90
16040;DHT22;8124;48.634;8.120;2022-09-09T12:12:38;22.30;99.90
16040;DHT22;8124;48.634;8.120;2022-09-09T12:17:46;22.30;99.90
16040;DHT22;8124;48.634;8.120;2022-09-09T12:28:42;22.70;99.90
16040;DHT22;8124;48.634;8.120;2022-09-09T12:33:47;22.70;99.90
16040;DHT22;8124;48.634;8.120;2022-09-09T12:38:50;22.80;99.90
16040;DHT22;8124;48.634;8.120;2022-09-09T12:44:05;22.80;99.90
16040;DHT22;8124;48.634;8.120;2022-09-09T12:49:26;22.90;99.90
16040;DHT22;8124;48.634;8.120;2022-09-09T12:54:31;22.70;99.90
16040;DHT22;8124;48.634;8.120;2022-09-09T12:59:38;22.70;99.90
16040;DHT22;8124;48.634;8.120;2022-09-09T13:04:41;22.40;99.90
16040;DHT22;8124;48.634;8.120;2022-09-09T13:09:46;22.40;99.90
16040;DHT22;8124;48.634;8.120;2022-09-09T13:14:54;22.30;99.90
16040;DHT22;8124;48.634;8.120;2022-09-09T13:19:57;22.00;99.90
16040;DHT22;8124;48.634;8.120;2022-09-09T13:25:06;21.50;99.90
16040;DHT22;8124;48.634;8.120;2022-09-09T13:30:25;21.40;99.90
16040;DHT22;8124;48.634;8.120;2022-09-09T13:35:28;21.70;99.90
16040;DHT22;8124;48.634;8.120;2022-09-09T13:40:38;22.00;99.90
16040;DHT22;8124;48.634;8.120;2022-09-09T13:45:52;22.10;99.90
16040;DHT22;8124;48.634;8.120;2022-09-09T13:51:00;22.10;99.90
16040;DHT22;8124;48.634;8.120;2022-09-09T13:56:03;22.30;99.90
16040;DHT22;8124;48.634;8.120;2022-09-09T14:01:09;22.40;99.90
16040;DHT22;8124;48.634;8.120;2022-09-09T14:06:13;22.50;99.90
16040;DHT22;8124;48.634;8.120;2022-09-09T14:11:16;22.60;99.90
16040;DHT22;8124;48.634;8.120;2022-09-09T14:16:21;22.40;99.90
16040;DHT22;8124;48.634;8.120;2022-09-09T14:21:24;22.40;99.90
16040;DHT22;8124;48.634;8.120;2022-09-09T14:26:27;22.60;99.90
16040;DHT22;8124;48.634;8.120;2022-09-09T14:31:33;22.70;99.90
16040;DHT22;8124;48.634;8.120;2022-09-09T14:36:36;22.70;99.90
16040;DHT22;8124;48.634;8.120;2022-09-09T14:41:39;22.70;99.90
16040;DHT22;8124;48.634;8.120;2022-09-09T14:46:43;22.50;99.90
16040;DHT22;8124;48.634;8.120;2022-09-09T14:51:46;22.50;99.90
16040;DHT22;8124;48.634;8.120;2022-09-09T14:56:49;22.30;99.90
16040;DHT22;8124;48.634;8.120;2022-09-09T15:01:56;21.10;99.90
16040;DHT22;8124;48.634;8.120;2022-09-09T15:07:00;20.70;99.90
16040;DHT22;8124;48.634;8.120;2022-09-09T15:12:03;20.90;99.90
16040;DHT22;8124;48.634;8.120;2022-09-09T15:17:08;21.20;99.90
16040;DHT22;8124;48.634;8.120;2022-09-09T15:22:11;21.00;99.90
16040;DHT22;8124;48.634;8.120;2022-09-09T15:27:14;20.90;99.90
16040;DHT22;8124;48.634;8.120;2022-09-09T15:32:18;21.00;99.90
16040;DHT22;8124;48.634;8.120;2022-09-09T15:37:21;20.80;99.90
16040;DHT22;8124;48.634;8.120;2022-09-09T15:42:25;20.80;99.90
16040;DHT22;8124;48.634;8.120;2022-09-09T15:47:29;20.90;99.90
16040;DHT22;8124;48.634;8.120;2022-09-09T15:52:39;20.90;99.90
16040;DHT22;8124;48.634;8.120;2022-09-09T15:57:42;20.80;99.90
16040;DHT22;8124;48.634;8.120;2022-09-09T16:02:47;20.80;99.90
16040;DHT22;8124;48.634;8.120;2022-09-09T16:07:52;20.80;99.90
16040;DHT22;8124;48.634;8.120;2022-09-09T16:12:54;20.70;99.90
16040;DHT22;8124;48.634;8.120;2022-09-09T16:17:59;20.90;99.90
16040;DHT22;8124;48.634;8.120;2022-09-09T16:23:02;20.90;99.90
16040;DHT22;8124;48.634;8.120;2022-09-09T16:28:04;20.70;99.90
16040;DHT22;8124;48.634;8.120;2022-09-09T16:33:10;20.80;99.90
16040;DHT22;8124;48.634;8.120;2022-09-09T16:38:12;20.80;99.90
16040;DHT22;8124;48.634;8.120;2022-09-09T16:43:18;20.80;99.90
16040;DHT22;8124;48.634;8.120;2022-09-09T16:48:23;20.80;99.90
16040;DHT22;8124;48.634;8.120;2022-09-09T16:53:26;20.80;99.90
16040;DHT22;8124;48.634;8.120;2022-09-09T16:58:29;20.90;99.90
16040;DHT22;8124;48.634;8.120;2022-09-09T17:03:33;20.90;99.90
16040;DHT22;8124;48.634;8.120;2022-09-09T17:08:36;20.80;99.90
16040;DHT22;8124;48.634;8.120;2022-09-09T17:13:39;20.80;99.90
16040;DHT22;8124;48.634;8.120;2022-09-09T17:18:44;20.60;99.90
16040;DHT22;8124;48.634;8.120;2022-09-09T17:23:48;20.40;99.90
16040;DHT22;8124;48.634;8.120;2022-09-09T17:28:51;20.40;99.90
16040;DHT22;8124;48.634;8.120;2022-09-09T17:34:01;20.40;99.90
16040;DHT22;8124;48.634;8.120;2022-09-09T17:39:05;20.50;99.90
16040;DHT22;8124;48.634;8.120;2022-09-09T17:44:08;20.50;99.90
16040;DHT22;8124;48.634;8.120;2022-09-09T17:49:15;20.50;99.90
16040;DHT22;8124;48.634;8.120;2022-09-09T17:54:19;20.40;99.90
16040;DHT22;8124;48.634;8.120;2022-09-09T17:59:22;20.30;99.90
16040;DHT22;8124;48.634;8.120;2022-09-09T18:04:28;20.30;99.90
16040;DHT22;8124;48.634;8.120;2022-09-09T18:09:30;20.10;99.90
16040;DHT22;8124;48.634;8.120;2022-09-09T18:14:33;20.00;99.90
16040;DHT22;8124;48.634;8.120;2022-09-09T18:19:38;20.00;99.90
16040;DHT22;8124;48.634;8.120;2022-09-09T18:24:41;20.00;99.90
16040;DHT22;8124;48.634;8.120;2022-09-09T18:29:46;20.20;99.90
16040;DHT22;8124;48.634;8.120;2022-09-09T18:34:50;20.00;99.90
16040;DHT22;8124;48.634;8.120;2022-09-09T18:39:56;20.10;99.90
16040;DHT22;8124;48.634;8.120;2022-09-09T18:45:04;20.10;99.90
16040;DHT22;8124;48.634;8.120;2022-09-09T18:50:15;20.20;99.90
16040;DHT22;8124;48.634;8.120;2022-09-09T18:55:19;20.20;99.90
16040;DHT22;8124;48.634;8.120;2022-09-09T19:00:22;20.10;99.90
16040;DHT22;8124;48.634;8.120;2022-09-09T19:05:26;20.20;99.90
16040;DHT22;8124;48.634;8.120;2022-09-09T19:10:35;20.00;99.90
16040;DHT22;8124;48.634;8.120;2022-09-09T19:15:37;20.10;99.90
16040;DHT22;8124;48.634;8.120;2022-09-09T19:20:42;20.10;99.90
16040;DHT22;8124;48.634;8.120;2022-09-09T19:25:46;20.10;99.90
16040;DHT22;8124;48.634;8.120;2022-09-09T19:30:49;20.20;99.90
16040;DHT22;8124;48.634;8.120;2022-09-09T19:35:57;20.10;99.90
16040;DHT22;8124;48.634;8.120;2022-09-09T19:41:02;20.10;99.90
16040;DHT22;8124;48.634;8.120;2022-09-09T19:46:07;20.10;99.90
16040;DHT22;8124;48.634;8.120;2022-09-09T19:51:15;20.00;99.90
16040;DHT22;8124;48.634;8.120;2022-09-09T19:56:20;20.10;99.90
16040;DHT22;8124;48.634;8.120;2022-09-09T20:01:25;20.00;99.90
16040;DHT22;8124;48.634;8.120;2022-09-09T20:06:31;19.90;99.90
16040;DHT22;8124;48.634;8.120;2022-09-09T20:11:36;19.90;99.90
16040;DHT22;8124;48.634;8.120;2022-09-09T20:16:40;19.80;99.90
16040;DHT22;8124;48.634;8.120;2022-09-09T20:21:45;19.80;99.90
16040;DHT22;8124;48.634;8.120;2022-09-09T20:26:50;19.80;99.90
16040;DHT22;8124;48.634;8.120;2022-09-09T20:31:53;19.80;99.90
16040;DHT22;8124;48.634;8.120;2022-09-09T20:36:58;19.80;99.90
16040;DHT22;8124;48.634;8.120;2022-09-09T20:42:04;19.80;99.90
16040;DHT22;8124;48.634;8.120;2022-09-09T20:47:08;19.90;99.90
16040;DHT22;8124;48.634;8.120;2022-09-09T20:52:12;19.90;99.90
16040;DHT22;8124;48.634;8.120;2022-09-09T20:57:15;19.90;99.90
16040;DHT22;8124;48.634;8.120;2022-09-09T21:02:22;19.90;99.90
16040;DHT22;8124;48.634;8.120;2022-09-09T21:07:27;19.90;99.90
16040;DHT22;8124;48.634;8.120;2022-09-09T21:12:30;19.90;99.90
16040;DHT22;8124;48.634;8.120;2022-09-09T21:17:33;19.90;99.90
16040;DHT22;8124;48.634;8.120;2022-09-09T21:22:37;19.80;99.90
16040;DHT22;8124;48.634;8.120;2022-09-09T21:27:41;19.80;99.90
16040;DHT22;8124;48.634;8.120;2022-09-09T21:32:44;19.70;99.90
16040;DHT22;8124;48.634;8.120;2022-09-09T21:37:48;19.60;99.90
16040;DHT22;8124;48.634;8.120;2022-09-09T21:42:51;19.20;99.90
16040;DHT22;8124;48.634;8.120;2022-09-09T21:47:53;19.00;99.90
16040;DHT22;8124;48.634;8.120;2022-09-09T21:52:58;19.00;99.90
16040;DHT22;8124;48.634;8.120;2022-09-09T21:58:00;19.30;99.90
16040;DHT22;8124;48.634;8.120;2022-09-09T22:03:03;19.30;99.90
16040;DHT22;8124;48.634;8.120;2022-09-09T22:08:08;19.30;99.90
16040;DHT22;8124;48.634;8.120;2022-09-09T22:13:12;19.30;99.90
16040;DHT22;8124;48.634;8.120;2022-09-09T22:18:15;19.20;99.90
16040;DHT22;8124;48.634;8.120;2022-09-09T22:23:21;19.10;99.90
16040;DHT22;8124;48.634;8.120;2022-09-09T22:28:24;19.00;99.90
16040;DHT22;8124;48.634;8.120;2022-09-09T22:33:27;19.00;99.90
16040;DHT22;8124;48.634;8.120;2022-09-09T22:38:32;18.90;99.90
16040;DHT22;8124;48.634;8.120;2022-09-09T22:43:35;18.80;99.90
16040;DHT22;8124;48.634;8.120;2022-09-09T22:48:38;18.90;99.90
16040;DHT22;8124;48.634;8.120;2022-09-09T22:53:44;18.80;99.90
16040;DHT22;8124;48.634;8.120;2022-09-09T22:58:51;18.80;99.90
16040;DHT22;8124;48.634;8.120;2022-09-09T23:03:56;18.80;99.90
16040;DHT22;8124;48.634;8.120;2022-09-09T23:09:03;18.70;99.90
16040;DHT22;8124;48.634;8.120;2022-09-09T23:14:09;18.60;99.90
16040;DHT22;8124;48.634;8.120;2022-09-09T23:19:15;18.50;99.90
16040;DHT22;8124;48.634;8.120;2022-09-09T23:24:19;18.60;99.90
16040;DHT22;8124;48.634;8.120;2022-09-09T23:29:22;18.60;99.90
16040;DHT22;8124;48.634;8.120;2022-09-09T23:34:25;18.50;99.90
16040;DHT22;8124;48.634;8.120;2022-09-09T23:39:29;18.30;99.90
16040;DHT22;8124;48.634;8.120;2022-09-09T23:44:32;18.30;99.90
16040;DHT22;8124;48.634;8.120;2022-09-09T23:49:36;18.40;99.90
16040;DHT22;8124;48.634;8.120;2022-09-09T23:54:41;18.30;99.90
16040;DHT22;8124;48.634;8.120;2022-09-09T23:59:44;18.30;99.90
